Time;durP1;ratioP1;P1;durP2;ratioP2;P2;SDS_P1;SDS_P2;PMS_P1;PMS_P2;Temp;Humidity;BMP_temperature;BMP_pressure;BME280_temperature;BME280_humidity;BME280_pressure;Samples;Min_cycle;Max_cycle;Signal;HPM_P1;HPM_P2
2022/12/23 00:01:45;;;;;;;9.57;2.13;;;;;;;;;;4976012;28;20042;-58
2022/12/23 00:04:10;;;;;;;8.20;2.55;;;;;;;;;;4974360;28;20885;-59
2022/12/23 00:06:35;;;;;;;6.95;2.42;;;;;;;;;;4976090;28;20474;-57
2022/12/23 00:09:01;;;;;;;11.13;2.58;;;;;;;;;;4972847;28;20122;-58
2022/12/23 00:11:26;;;;;;;8.23;2.47;;;;;;;;;;4977744;28;20030;-58
2022/12/23 00:16:36;;;;;;;8.43;2.10;;;;;;;;;;4970419;28;20035;-58
2022/12/23 00:19:01;;;;;;;10.40;2.78;;;;;;;;;;4974957;28;20039;-56
2022/12/23 00:21:27;;;;;;;6.00;2.30;;;;;;;;;;4975821;28;20055;-58
2022/12/23 00:23:52;;;;;;;8.57;2.15;;;;;;;;;;4974041;28;20549;-58
2022/12/23 00:26:26;;;;;;;8.68;2.47;;;;;;;;;;4971410;28;20074;-58
2022/12/23 00:28:54;;;;;;;8.35;3.10;;;;;;;;;;4977947;28;20030;-58
2022/12/23 00:31:20;;;;;;;;;;;;;;;;;;4975813;28;20042;-59
2022/12/23 00:33:46;;;;;;;8.48;2.63;;;;;;;;;;4978020;28;19989;-58
2022/12/23 00:36:18;;;;;;;11.00;3.90;;;;;;;;;;4971285;28;20042;-58
2022/12/23 00:44:11;;;;;;;5.05;2.35;;;;;;;;;;4973783;28;20034;-59
2022/12/23 00:46:36;;;;;;;6.32;2.05;;;;;;;;;;4975346;28;20525;-58
2022/12/23 00:51:46;;;;;;;7.78;2.38;;;;;;;;;;4978359;28;20030;-58
2022/12/23 00:54:11;;;;;;;7.15;2.25;;;;;;;;;;4976498;28;20035;-58
2022/12/23 00:56:37;;;;;;;4.60;2.20;;;;;;;;;;4979095;28;20073;-58
2022/12/23 00:59:02;;;;;;;5.50;2.05;;;;;;;;;;4978975;28;20042;-55
2022/12/23 01:06:56;;;;;;;6.20;2.20;;;;;;;;;;4975803;28;20035;-57
2022/12/23 01:09:22;;;;;;;7.75;2.40;;;;;;;;;;4974581;28;20046;-58
2022/12/23 01:11:47;;;;;;;5.93;2.13;;;;;;;;;;4975430;28;20023;-59
2022/12/23 01:14:12;;;;;;;6.38;2.47;;;;;;;;;;4973234;28;20481;-57
2022/12/23 01:16:38;;;;;;;4.18;1.98;;;;;;;;;;4975604;28;20027;-58
2022/12/23 01:19:04;;;;;;;3.33;2.10;;;;;;;;;;4977275;28;20022;-59
2022/12/23 01:21:29;;;;;;;3.28;1.80;;;;;;;;;;4974647;28;20038;-58
2022/12/23 01:23:54;;;;;;;5.30;2.00;;;;;;;;;;4983051;28;20037;-58
2022/12/23 01:26:20;;;;;;;5.10;2.20;;;;;;;;;;4984013;28;20035;-58
2022/12/23 01:28:45;;;;;;;6.28;1.95;;;;;;;;;;4982431;28;20034;-57
2022/12/23 01:31:11;;;;;;;5.63;1.77;;;;;;;;;;4972157;28;20468;-58
2022/12/23 01:33:36;;;;;;;4.60;1.63;;;;;;;;;;4984332;28;20030;-57
2022/12/23 01:36:02;;;;;;;5.85;1.60;;;;;;;;;;4981961;28;20035;-58
2022/12/23 01:38:28;;;;;;;5.00;1.60;;;;;;;;;;4978696;28;20069;-57
2022/12/23 01:40:53;;;;;;;4.28;1.63;;;;;;;;;;4978615;28;20505;-59
2022/12/23 01:43:19;;;;;;;3.17;1.55;;;;;;;;;;4976094;28;20034;-58
2022/12/23 01:45:45;;;;;;;3.38;1.58;;;;;;;;;;4984301;28;20474;-58
2022/12/23 01:48:21;;;;;;;4.68;1.45;;;;;;;;;;4974019;28;20052;-58
2022/12/23 01:50:55;;;;;;;3.50;1.57;;;;;;;;;;4976866;28;20052;-58
2022/12/23 01:53:34;;;;;;;5.82;1.95;;;;;;;;;;4978664;28;20541;-57
2022/12/23 01:56:02;;;;;;;2.15;1.38;;;;;;;;;;4975490;28;20065;-58
2022/12/23 01:58:27;;;;;;;4.05;1.63;;;;;;;;;;4977232;28;20121;-58
2022/12/23 02:03:41;;;;;;;2.22;1.35;;;;;;;;;;4976863;28;20505;-58
2022/12/23 02:11:58;;;;;;;2.80;1.63;;;;;;;;;;4979164;28;20038;-58
2022/12/23 02:17:26;;;;;;;1.65;1.10;;;;;;;;;;4978763;28;20027;-56
2022/12/23 02:19:58;;;;;;;6.15;1.50;;;;;;;;;;4979650;28;20073;-57
2022/12/23 02:22:29;;;;;;;0.95;0.93;;;;;;;;;;4975777;28;20117;-57
2022/12/23 02:24:54;;;;;;;6.75;1.42;;;;;;;;;;4991631;28;20035;-57
2022/12/23 02:27:45;;;;;;;1.88;1.17;;;;;;;;;;4975661;28;20113;-57
2022/12/23 02:30:29;;;;;;;1.15;1.05;;;;;;;;;;4962186;28;20051;-58
2022/12/23 02:32:57;;;;;;;1.00;1.00;;;;;;;;;;4980169;28;20030;-57
2022/12/23 02:35:39;;;;;;;1.85;1.10;;;;;;;;;;4975209;28;20038;-58
2022/12/23 02:38:08;;;;;;;4.82;1.33;;;;;;;;;;4976077;28;20035;-57
2022/12/23 02:40:41;;;;;;;1.50;1.10;;;;;;;;;;4972478;28;20042;-57
2022/12/23 02:43:10;;;;;;;4.40;1.50;;;;;;;;;;4975271;28;20035;-58
2022/12/23 02:45:39;;;;;;;3.00;1.17;;;;;;;;;;4973467;28;20034;-58
2022/12/23 02:48:07;;;;;;;3.08;1.48;;;;;;;;;;4974801;28;20030;-58
2022/12/23 02:50:34;;;;;;;1.33;1.10;;;;;;;;;;4978382;28;20084;-58
2022/12/23 02:53:02;;;;;;;1.83;1.10;;;;;;;;;;4977015;28;20498;-57
2022/12/23 02:55:30;;;;;;;1.45;1.02;;;;;;;;;;4973116;28;20058;-57
2022/12/23 02:57:55;;;;;;;;;;;;;;;;;;4985041;28;20161;-57
2022/12/23 03:00:20;;;;;;;2.07;1.23;;;;;;;;;;4978214;28;20456;-57
2022/12/23 03:02:46;;;;;;;3.17;1.23;;;;;;;;;;4974951;28;20452;-57
2022/12/23 03:05:25;;;;;;;1.98;1.10;;;;;;;;;;4974420;28;20104;-57
2022/12/23 03:07:51;;;;;;;2.00;1.30;;;;;;;;;;4975371;28;20050;-58
2022/12/23 03:10:30;;;;;;;2.55;1.42;;;;;;;;;;4977569;28;20625;-57
2022/12/23 03:13:02;;;;;;;3.25;1.38;;;;;;;;;;4992169;28;20114;-56
2022/12/23 03:15:28;;;;;;;2.08;1.20;;;;;;;;;;4974838;28;20464;-56
2022/12/23 03:17:53;;;;;;;1.73;1.35;;;;;;;;;;4973055;28;20032;-57
2022/12/23 03:20:33;;;;;;;3.80;1.20;;;;;;;;;;4967590;28;20042;-56
2022/12/23 03:23:13;;;;;;;3.88;1.58;;;;;;;;;;4976001;28;20042;-56
2022/12/23 03:25:46;;;;;;;1.30;1.20;;;;;;;;;;4972440;28;20469;-58
2022/12/23 03:28:17;;;;;;;2.00;1.23;;;;;;;;;;4980279;28;20031;-55
2022/12/23 03:30:45;;;;;;;2.83;1.80;;;;;;;;;;4975121;28;20121;-56
2022/12/23 03:33:11;;;;;;;4.07;1.60;;;;;;;;;;4979242;28;20037;-57
2022/12/23 03:35:47;;;;;;;2.75;1.50;;;;;;;;;;4972889;28;20129;-57
2022/12/23 03:38:15;;;;;;;2.03;1.40;;;;;;;;;;4972215;28;20046;-57
2022/12/23 03:40:43;;;;;;;3.53;1.40;;;;;;;;;;4974772;28;20060;-55
2022/12/23 03:43:15;;;;;;;1.30;1.20;;;;;;;;;;4981098;28;20034;-54
2022/12/23 03:45:47;;;;;;;1.77;1.20;;;;;;;;;;4978363;28;20026;-55
2022/12/23 03:48:12;;;;;;;1.02;1.00;;;;;;;;;;4981204;28;20045;-55
2022/12/23 03:50:38;;;;;;;4.20;1.30;;;;;;;;;;4973831;28;20034;-54
2022/12/23 03:53:06;;;;;;;3.30;1.23;;;;;;;;;;4974868;28;20142;-57
2022/12/23 03:55:33;;;;;;;1.30;1.20;;;;;;;;;;4977268;28;20043;-56
2022/12/23 03:57:59;;;;;;;;;;;;;;;;;;4977659;28;20030;-56
2022/12/23 04:00:26;;;;;;;2.70;1.20;;;;;;;;;;4973739;28;19928;-55
2022/12/23 04:02:51;;;;;;;;;;;;;;;;;;4971693;28;20436;-55
2022/12/23 04:05:23;;;;;;;1.45;1.20;;;;;;;;;;4958023;28;20721;-56
2022/12/23 04:07:57;;;;;;;1.40;1.25;;;;;;;;;;4981002;28;20068;-57
2022/12/23 04:10:23;;;;;;;1.10;1.10;;;;;;;;;;4981606;28;20880;-57
2022/12/23 04:12:49;;;;;;;1.90;1.30;;;;;;;;;;4982218;28;20065;-56
2022/12/23 04:15:17;;;;;;;2.78;1.20;;;;;;;;;;4973094;28;20368;-57
2022/12/23 04:17:43;;;;;;;1.50;1.40;;;;;;;;;;4973244;28;20038;-57
2022/12/23 04:20:09;;;;;;;1.35;1.15;;;;;;;;;;4978347;28;20045;-56
2022/12/23 04:22:34;;;;;;;1.55;1.40;;;;;;;;;;4977683;28;20033;-57
2022/12/23 04:25:00;;;;;;;6.47;3.97;;;;;;;;;;4979701;28;20031;-58
2022/12/23 04:27:25;;;;;;;3.55;1.30;;;;;;;;;;4984299;28;20038;-57
2022/12/23 04:29:50;;;;;;;1.85;1.40;;;;;;;;;;4974837;28;20575;-57
2022/12/23 04:32:15;;;;;;;1.98;1.38;;;;;;;;;;4977126;28;20449;-56
2022/12/23 04:34:41;;;;;;;2.90;1.50;;;;;;;;;;4975628;28;20045;-56
2022/12/23 04:37:06;;;;;;;2.80;1.40;;;;;;;;;;4983806;28;20031;-57
2022/12/23 04:39:31;;;;;;;1.60;1.33;;;;;;;;;;4977914;28;20083;-58
2022/12/23 04:41:57;;;;;;;2.22;1.40;;;;;;;;;;4977158;28;20141;-58
2022/12/23 04:44:22;;;;;;;4.88;1.60;;;;;;;;;;4980372;28;20396;-58
2022/12/23 04:46:47;;;;;;;3.47;1.75;;;;;;;;;;4980812;28;20037;-58
2022/12/23 04:49:12;;;;;;;3.63;2.70;;;;;;;;;;4982991;28;20039;-59
2022/12/23 04:51:38;;;;;;;6.40;3.10;;;;;;;;;;4976703;28;20061;-58
2022/12/23 04:54:03;;;;;;;5.30;2.35;;;;;;;;;;4975347;28;20472;-57
2022/12/23 04:56:29;;;;;;;3.28;2.00;;;;;;;;;;4978012;28;20034;-58
2022/12/23 04:58:54;;;;;;;3.35;1.90;;;;;;;;;;4981564;28;20034;-59
2022/12/23 05:01:19;;;;;;;3.63;1.83;;;;;;;;;;4976064;28;20038;-57
2022/12/23 05:03:45;;;;;;;3.28;1.70;;;;;;;;;;4975542;28;20034;-59
2022/12/23 05:06:10;;;;;;;2.17;1.52;;;;;;;;;;4976781;28;20037;-57
2022/12/23 05:08:35;;;;;;;2.75;1.70;;;;;;;;;;4976307;28;20038;-58
2022/12/23 05:11:00;;;;;;;4.82;1.77;;;;;;;;;;4976534;28;20085;-58
2022/12/23 05:13:26;;;;;;;2.55;1.80;;;;;;;;;;4975510;28;20117;-58
2022/12/23 05:15:52;;;;;;;2.55;1.98;;;;;;;;;;4980435;28;20773;-58
2022/12/23 05:18:18;;;;;;;2.45;1.90;;;;;;;;;;4971391;28;20061;-57
2022/12/23 05:20:43;;;;;;;4.28;2.05;;;;;;;;;;4980199;28;20034;-57
2022/12/23 05:23:08;;;;;;;4.38;2.60;;;;;;;;;;4979650;28;21016;-57
2022/12/23 05:25:35;;;;;;;8.00;2.85;;;;;;;;;;4976675;28;20030;-56
2022/12/23 05:28:00;;;;;;;4.15;2.50;;;;;;;;;;4979356;28;20039;-58
2022/12/23 05:30:25;;;;;;;4.45;2.50;;;;;;;;;;4981637;28;20045;-58
2022/12/23 05:32:54;;;;;;;3.75;2.38;;;;;;;;;;4975696;28;20185;-58
2022/12/23 05:35:20;;;;;;;3.60;2.40;;;;;;;;;;4980450;28;20045;-58
2022/12/23 05:37:45;;;;;;;3.47;2.20;;;;;;;;;;4982217;28;20026;-58
2022/12/23 05:40:11;;;;;;;3.42;2.42;;;;;;;;;;4986461;28;20588;-58
2022/12/23 05:42:36;;;;;;;3.13;2.50;;;;;;;;;;4970965;28;20046;-58
2022/12/23 05:45:01;;;;;;;3.17;2.30;;;;;;;;;;4972382;28;20441;-58
2022/12/23 05:47:27;;;;;;;4.30;2.30;;;;;;;;;;4977681;28;20039;-58
2022/12/23 05:49:52;;;;;;;4.93;2.63;;;;;;;;;;4979239;28;20568;-58
2022/12/23 05:52:17;;;;;;;3.45;2.47;;;;;;;;;;4979141;28;20374;-58
2022/12/23 05:54:43;;;;;;;4.60;2.63;;;;;;;;;;4975735;28;20485;-58
2022/12/23 05:57:08;;;;;;;3.72;2.50;;;;;;;;;;4972176;28;20026;-58
2022/12/23 05:59:33;;;;;;;3.15;2.40;;;;;;;;;;4979300;28;20027;-58
2022/12/23 06:01:59;;;;;;;5.38;2.53;;;;;;;;;;4981779;28;20576;-57
2022/12/23 06:04:25;;;;;;;3.92;2.55;;;;;;;;;;4986465;28;20439;-58
2022/12/23 06:06:50;;;;;;;5.43;2.70;;;;;;;;;;4979200;28;20030;-58
2022/12/23 06:09:15;;;;;;;6.30;2.88;;;;;;;;;;4979995;28;20034;-58
2022/12/23 06:11:40;;;;;;;5.35;2.65;;;;;;;;;;4978027;28;20038;-58
2022/12/23 06:14:06;;;;;;;6.22;3.00;;;;;;;;;;4978346;28;20463;-58
2022/12/23 06:16:31;;;;;;;8.85;3.33;;;;;;;;;;4978559;28;20059;-58
2022/12/23 06:18:57;;;;;;;6.50;3.50;;;;;;;;;;4973900;28;20045;-58
2022/12/23 06:21:24;;;;;;;8.60;3.75;;;;;;;;;;4982435;28;20034;-57
2022/12/23 06:23:49;;;;;;;9.75;3.95;;;;;;;;;;4973434;28;20034;-58
2022/12/23 06:26:14;;;;;;;7.20;3.63;;;;;;;;;;4972128;28;20041;-58
2022/12/23 06:28:40;;;;;;;11.40;4.43;;;;;;;;;;4973095;28;20038;-58
2022/12/23 06:31:05;;;;;;;10.10;3.90;;;;;;;;;;4964728;28;20743;-58
2022/12/23 06:33:30;;;;;;;8.25;3.85;;;;;;;;;;4976321;28;20035;-58
2022/12/23 06:35:56;;;;;;;6.45;3.42;;;;;;;;;;4974421;28;20153;-58
2022/12/23 06:38:21;;;;;;;6.40;3.60;;;;;;;;;;4977183;28;20684;-58
2022/12/23 06:40:46;;;;;;;4.70;3.00;;;;;;;;;;4978176;28;20030;-58
2022/12/23 06:43:12;;;;;;;4.78;2.97;;;;;;;;;;4981158;28;20426;-58
2022/12/23 06:45:37;;;;;;;7.43;3.22;;;;;;;;;;4970713;28;20117;-58
2022/12/23 06:48:03;;;;;;;4.35;2.50;;;;;;;;;;4983941;28;20037;-58
2022/12/23 06:50:28;;;;;;;6.07;3.85;;;;;;;;;;4975577;28;20042;-58
2022/12/23 06:52:53;;;;;;;4.05;2.85;;;;;;;;;;4975025;28;20033;-57
2022/12/23 06:55:19;;;;;;;9.73;3.00;;;;;;;;;;4976795;28;20141;-58
2022/12/23 06:57:44;;;;;;;4.20;2.65;;;;;;;;;;4973241;28;20061;-57
2022/12/23 07:00:10;;;;;;;3.67;2.30;;;;;;;;;;4972472;28;20117;-58
2022/12/23 07:02:35;;;;;;;5.20;2.35;;;;;;;;;;4974364;28;20037;-57
2022/12/23 07:05:00;;;;;;;9.30;2.45;;;;;;;;;;4978402;28;20034;-57
2022/12/23 07:07:26;;;;;;;4.18;2.50;;;;;;;;;;4981081;28;20130;-58
2022/12/23 07:09:51;;;;;;;3.20;2.30;;;;;;;;;;4974246;28;20039;-60
2022/12/23 07:12:16;;;;;;;5.25;2.78;;;;;;;;;;4975311;28;20085;-56
2022/12/23 07:14:42;;;;;;;4.90;2.70;;;;;;;;;;4974685;28;20022;-58
2022/12/23 07:17:07;;;;;;;3.15;2.40;;;;;;;;;;4973860;28;20037;-58
2022/12/23 07:19:33;;;;;;;3.40;2.40;;;;;;;;;;4973717;28;20049;-57
2022/12/23 07:21:58;;;;;;;5.68;2.80;;;;;;;;;;4973365;28;20034;-58
2022/12/23 07:24:23;;;;;;;4.20;2.53;;;;;;;;;;4971528;28;20030;-59
2022/12/23 07:26:49;;;;;;;5.15;2.80;;;;;;;;;;4973773;28;20061;-57
2022/12/23 07:29:14;;;;;;;7.65;3.58;;;;;;;;;;4973486;28;20593;-57
2022/12/23 07:31:40;;;;;;;7.05;4.50;;;;;;;;;;4972970;28;20699;-57
2022/12/23 07:34:05;;;;;;;8.27;4.50;;;;;;;;;;4975926;28;20565;-56
2022/12/23 07:36:30;;;;;;;8.60;5.70;;;;;;;;;;4974213;28;20046;-56
2022/12/23 07:38:56;;;;;;;12.35;7.40;;;;;;;;;;4972493;28;20075;-57
2022/12/23 07:41:21;;;;;;;11.20;7.53;;;;;;;;;;4971652;28;20376;-58
2022/12/23 07:43:46;;;;;;;10.55;6.75;;;;;;;;;;4979510;28;20185;-58
2022/12/23 07:46:12;;;;;;;10.23;5.85;;;;;;;;;;4973035;28;20026;-58
2022/12/23 07:48:38;;;;;;;7.88;5.07;;;;;;;;;;4958357;28;20034;-57
2022/12/23 07:51:03;;;;;;;8.23;4.80;;;;;;;;;;4979286;28;20547;-57
2022/12/23 07:53:29;;;;;;;7.20;4.53;;;;;;;;;;4977079;28;20093;-58
2022/12/23 07:55:54;;;;;;;6.75;4.30;;;;;;;;;;4973954;28;20042;-58
2022/12/23 07:58:20;;;;;;;6.88;3.85;;;;;;;;;;4970456;28;20421;-58
2022/12/23 08:00:45;;;;;;;9.40;6.07;;;;;;;;;;4976789;28;20718;-57
2022/12/23 08:03:10;;;;;;;13.10;8.32;;;;;;;;;;4971821;28;20038;-58
2022/12/23 08:05:36;;;;;;;16.73;7.35;;;;;;;;;;4972713;28;20510;-57
2022/12/23 08:08:01;;;;;;;15.95;7.20;;;;;;;;;;4977139;28;20035;-57
2022/12/23 08:10:26;;;;;;;15.75;6.85;;;;;;;;;;4974045;28;20038;-56
2022/12/23 08:12:52;;;;;;;17.65;9.45;;;;;;;;;;4970939;28;20045;-57
2022/12/23 08:15:17;;;;;;;16.50;9.77;;;;;;;;;;4968062;28;20145;-58
2022/12/23 08:17:42;;;;;;;8.85;4.93;;;;;;;;;;4977537;28;20045;-58
2022/12/23 08:20:08;;;;;;;10.35;6.35;;;;;;;;;;4976364;28;20039;-57
2022/12/23 08:22:33;;;;;;;13.15;6.20;;;;;;;;;;4969863;28;20074;-59
2022/12/23 08:24:58;;;;;;;6.05;4.40;;;;;;;;;;4981120;28;20082;-58
2022/12/23 08:27:24;;;;;;;6.68;4.60;;;;;;;;;;4974459;28;20488;-58
2022/12/23 08:29:49;;;;;;;8.40;4.78;;;;;;;;;;4972703;28;20416;-58
2022/12/23 08:32:15;;;;;;;7.35;4.97;;;;;;;;;;4977463;28;20031;-58
2022/12/23 08:34:40;;;;;;;6.80;4.45;;;;;;;;;;4976120;28;20143;-57
2022/12/23 08:37:06;;;;;;;7.45;4.80;;;;;;;;;;4971526;28;20117;-58
2022/12/23 08:39:31;;;;;;;7.53;4.75;;;;;;;;;;4976225;28;20259;-57
2022/12/23 08:41:56;;;;;;;9.82;6.18;;;;;;;;;;4980540;28;20081;-58
2022/12/23 08:44:22;;;;;;;7.57;5.20;;;;;;;;;;4975276;28;20043;-56
2022/12/23 08:46:47;;;;;;;7.75;4.93;;;;;;;;;;4971026;28;20030;-56
2022/12/23 08:49:13;;;;;;;7.07;4.65;;;;;;;;;;4980399;28;20093;-56
2022/12/23 08:51:38;;;;;;;8.27;5.70;;;;;;;;;;4974692;28;20712;-58
2022/12/23 08:54:04;;;;;;;11.10;6.32;;;;;;;;;;4976319;28;20034;-58
2022/12/23 08:56:30;;;;;;;10.65;6.72;;;;;;;;;;4972866;28;20044;-58
2022/12/23 08:58:55;;;;;;;11.00;6.63;;;;;;;;;;4974294;28;20041;-58
2022/12/23 09:01:22;;;;;;;11.40;7.40;;;;;;;;;;4979537;28;20341;-58
2022/12/23 09:03:48;;;;;;;15.35;8.85;;;;;;;;;;4974918;28;20210;-58
2022/12/23 09:06:15;;;;;;;18.33;9.10;;;;;;;;;;4976200;28;20121;-58
2022/12/23 09:08:40;;;;;;;14.43;8.75;;;;;;;;;;4975250;28;20097;-58
2022/12/23 09:11:09;;;;;;;17.13;9.13;;;;;;;;;;4978268;28;20027;-58
2022/12/23 09:13:34;;;;;;;12.13;8.10;;;;;;;;;;4976098;28;20038;-58
2022/12/23 09:16:00;;;;;;;10.93;7.93;;;;;;;;;;4979036;28;20026;-59
2022/12/23 09:18:25;;;;;;;10.68;7.60;;;;;;;;;;4977868;28;20034;-58
2022/12/23 09:20:56;;;;;;;9.63;7.00;;;;;;;;;;4980785;28;20046;-58
2022/12/23 09:23:21;;;;;;;9.85;6.43;;;;;;;;;;4978222;28;20100;-58
2022/12/23 09:25:47;;;;;;;10.05;6.32;;;;;;;;;;4971834;28;20031;-58
2022/12/23 09:28:12;;;;;;;12.48;6.82;;;;;;;;;;4975651;28;20468;-58
2022/12/23 09:30:37;;;;;;;13.57;6.50;;;;;;;;;;4972910;28;20057;-58
2022/12/23 09:33:02;;;;;;;11.23;6.60;;;;;;;;;;4981009;28;20041;-58
2022/12/23 09:35:28;;;;;;;7.63;4.38;;;;;;;;;;4977175;28;20097;-58
2022/12/23 09:37:53;;;;;;;7.88;4.45;;;;;;;;;;4978083;28;20163;-58
2022/12/23 09:40:19;;;;;;;5.70;3.03;;;;;;;;;;4977801;28;20417;-58
2022/12/23 09:42:56;;;;;;;4.88;3.10;;;;;;;;;;4976750;28;20039;-58
2022/12/23 09:45:37;;;;;;;4.40;2.30;;;;;;;;;;4974827;28;20125;-58
2022/12/23 09:48:03;;;;;;;5.57;3.08;;;;;;;;;;4981382;28;20034;-58
2022/12/23 09:50:30;;;;;;;6.72;2.30;;;;;;;;;;4980430;28;20046;-58
2022/12/23 09:52:59;;;;;;;2.25;1.52;;;;;;;;;;4978718;28;20089;-58
2022/12/23 09:55:27;;;;;;;3.40;2.00;;;;;;;;;;4982996;28;20071;-58
2022/12/23 09:57:55;;;;;;;2.50;1.70;;;;;;;;;;4974004;28;20201;-58
2022/12/23 10:00:20;;;;;;;;;;;;;;;;;;4976811;28;20413;-56
2022/12/23 10:03:01;;;;;;;2.67;1.90;;;;;;;;;;4975471;28;19917;-57
2022/12/23 10:05:31;;;;;;;4.07;1.90;;;;;;;;;;4966607;28;20440;-57
2022/12/23 10:07:56;;;;;;;3.58;2.20;;;;;;;;;;4983045;28;20066;-57
2022/12/23 10:10:24;;;;;;;3.70;2.10;;;;;;;;;;4969199;28;20113;-57
2022/12/23 10:12:51;;;;;;;3.10;1.83;;;;;;;;;;4977059;28;20030;-57
2022/12/23 10:15:32;;;;;;;2.78;1.98;;;;;;;;;;4970704;28;20039;-58
2022/12/23 10:17:59;;;;;;;2.42;1.50;;;;;;;;;;4967557;28;20046;-58
2022/12/23 10:20:30;;;;;;;5.63;2.72;;;;;;;;;;4972930;28;20035;-58
2022/12/23 10:22:56;;;;;;;4.25;2.00;;;;;;;;;;4972071;28;20070;-58
2022/12/23 10:25:27;;;;;;;4.32;2.17;;;;;;;;;;4968785;28;20030;-58
2022/12/23 10:27:52;;;;;;;2.55;1.80;;;;;;;;;;4976598;28;20035;-58
2022/12/23 10:30:19;;;;;;;3.45;2.00;;;;;;;;;;4966345;28;20045;-57
2022/12/23 10:32:44;;;;;;;2.65;1.75;;;;;;;;;;4973956;28;20031;-57
2022/12/23 10:35:28;;;;;;;3.05;1.83;;;;;;;;;;4968134;28;20058;-57
2022/12/23 10:38:01;;;;;;;3.80;2.00;;;;;;;;;;4968711;28;20033;-58
2022/12/23 10:40:45;;;;;;;2.60;1.95;;;;;;;;;;4972649;28;20066;-57
2022/12/23 10:43:19;;;;;;;3.42;2.40;;;;;;;;;;4969671;28;20038;-58
2022/12/23 10:45:44;;;;;;;3.90;2.30;;;;;;;;;;4974895;28;20474;-58
2022/12/23 10:48:17;;;;;;;4.10;2.20;;;;;;;;;;4988523;28;20049;-58
2022/12/23 10:50:46;;;;;;;5.40;2.30;;;;;;;;;;4966729;28;20469;-59
2022/12/23 10:53:13;;;;;;;5.15;2.30;;;;;;;;;;4976107;28;20026;-57
2022/12/23 10:55:39;;;;;;;3.70;2.38;;;;;;;;;;4970526;28;20031;-58
2022/12/23 10:58:08;;;;;;;6.43;3.30;;;;;;;;;;4969747;28;20042;-58
2022/12/23 11:00:35;;;;;;;4.88;2.70;;;;;;;;;;4969058;28;20034;-57
2022/12/23 11:03:22;;;;;;;4.85;2.47;;;;;;;;;;4963123;28;20505;-58
2022/12/23 11:05:49;;;;;;;7.13;2.60;;;;;;;;;;4964441;28;20093;-57
2022/12/23 11:08:15;;;;;;;3.67;2.28;;;;;;;;;;4971545;28;20035;-58
2022/12/23 11:10:40;;;;;;;4.78;2.40;;;;;;;;;;4965065;28;20045;-57
2022/12/23 11:13:05;;;;;;;5.82;2.70;;;;;;;;;;4971810;28;20037;-57
2022/12/23 11:15:32;;;;;;;4.22;2.47;;;;;;;;;;4969701;28;20022;-58
2022/12/23 11:17:59;;;;;;;6.90;2.55;;;;;;;;;;4965721;28;20022;-58
2022/12/23 11:20:24;;;;;;;6.63;2.65;;;;;;;;;;4971044;28;20069;-58
2022/12/23 11:22:53;;;;;;;5.38;2.83;;;;;;;;;;4964767;28;20130;-58
2022/12/23 11:25:39;;;;;;;6.75;2.55;;;;;;;;;;4968400;28;20030;-59
2022/12/23 11:28:18;;;;;;;4.10;2.05;;;;;;;;;;4970828;28;20485;-58
2022/12/23 11:30:47;;;;;;;4.35;2.40;;;;;;;;;;4966905;28;20026;-58
2022/12/23 11:33:27;;;;;;;4.13;2.30;;;;;;;;;;4971035;28;20030;-58
2022/12/23 11:36:24;;;;;;;3.95;2.30;;;;;;;;;;4974344;28;20482;-58
2022/12/23 11:38:58;;;;;;;4.90;2.30;;;;;;;;;;4953084;28;20072;-57
2022/12/23 11:41:27;;;;;;;8.27;3.10;;;;;;;;;;4977320;28;20039;-59
2022/12/23 11:43:59;;;;;;;4.97;3.35;;;;;;;;;;4971568;28;20053;-58
2022/12/23 11:46:28;;;;;;;7.53;4.70;;;;;;;;;;4966760;28;20137;-58
2022/12/23 11:49:14;;;;;;;11.00;4.57;;;;;;;;;;4972120;28;20200;-58
2022/12/23 11:51:39;;;;;;;8.98;4.38;;;;;;;;;;4965712;28;20023;-59
2022/12/23 11:54:04;;;;;;;6.82;4.03;;;;;;;;;;4963954;28;20025;-57
2022/12/23 11:56:35;;;;;;;6.03;3.22;;;;;;;;;;4971029;28;20105;-58
2022/12/23 11:59:08;;;;;;;5.20;3.03;;;;;;;;;;4970139;28;20387;-57
2022/12/23 12:01:35;;;;;;;4.38;2.60;;;;;;;;;;4965077;28;20030;-59
2022/12/23 12:04:06;;;;;;;4.30;2.60;;;;;;;;;;4975260;28;20027;-57
2022/12/23 12:06:32;;;;;;;4.30;2.90;;;;;;;;;;4966020;28;20043;-58
2022/12/23 12:08:58;;;;;;;5.80;2.95;;;;;;;;;;4958877;28;20437;-57
2022/12/23 12:11:31;;;;;;;5.90;3.50;;;;;;;;;;4966968;28;20026;-58
2022/12/23 12:13:59;;;;;;;5.03;3.13;;;;;;;;;;4965827;28;20362;-57
2022/12/23 12:16:50;;;;;;;7.68;4.18;;;;;;;;;;4970866;28;20043;-57
2022/12/23 12:19:22;;;;;;;7.50;4.47;;;;;;;;;;4966711;28;20400;-58
2022/12/23 12:21:48;;;;;;;10.32;6.03;;;;;;;;;;4964183;28;20114;-56
2022/12/23 12:24:20;;;;;;;8.98;5.43;;;;;;;;;;4977461;28;20042;-59
2022/12/23 12:26:49;;;;;;;9.20;4.97;;;;;;;;;;4969266;28;20042;-58
2022/12/23 12:29:17;;;;;;;7.93;4.78;;;;;;;;;;4970437;28;20077;-57
2022/12/23 12:31:47;;;;;;;9.45;5.40;;;;;;;;;;4980273;28;20038;-58
2022/12/23 12:34:15;;;;;;;9.45;5.35;;;;;;;;;;4965111;28;20038;-58
2022/12/23 12:36:45;;;;;;;8.30;4.78;;;;;;;;;;4971780;28;20030;-57
2022/12/23 12:39:30;;;;;;;10.23;5.03;;;;;;;;;;4966731;28;20069;-58
2022/12/23 12:41:59;;;;;;;9.68;5.20;;;;;;;;;;4969538;28;20446;-59
2022/12/23 12:44:28;;;;;;;8.68;4.00;;;;;;;;;;4975378;28;20027;-57
2022/12/23 12:47:14;;;;;;;6.95;3.88;;;;;;;;;;4971752;28;20026;-57
2022/12/23 12:49:52;;;;;;;5.63;3.15;;;;;;;;;;4976023;28;20141;-57
2022/12/23 12:52:23;;;;;;;8.20;3.50;;;;;;;;;;4968052;28;20023;-57
2022/12/23 12:54:51;;;;;;;8.95;3.33;;;;;;;;;;4968837;28;20023;-57
2022/12/23 12:57:17;;;;;;;5.50;3.20;;;;;;;;;;4981771;28;20041;-58
2022/12/23 12:59:43;;;;;;;5.75;3.08;;;;;;;;;;4969584;28;20038;-56
2022/12/23 13:02:27;;;;;;;5.70;3.28;;;;;;;;;;4971697;28;20484;-57
2022/12/23 13:05:18;;;;;;;7.07;3.60;;;;;;;;;;4989638;28;20070;-55
2022/12/23 13:07:51;;;;;;;9.70;5.60;;;;;;;;;;4970496;28;20026;-58
2022/12/23 13:10:28;;;;;;;13.77;7.05;;;;;;;;;;4969227;28;20030;-58
2022/12/23 13:13:02;;;;;;;11.80;7.97;;;;;;;;;;4974617;28;21839;-58
2022/12/23 13:15:41;;;;;;;11.45;7.90;;;;;;;;;;4968058;28;20038;-58
2022/12/23 13:18:09;;;;;;;12.25;8.80;;;;;;;;;;4971691;28;20041;-58
2022/12/23 13:20:41;;;;;;;11.35;6.75;;;;;;;;;;4970678;28;20037;-57
2022/12/23 13:23:12;;;;;;;11.88;6.78;;;;;;;;;;4966567;28;20762;-57
2022/12/23 13:25:42;;;;;;;12.10;5.90;;;;;;;;;;4974593;28;20034;-57
2022/12/23 13:28:26;;;;;;;7.78;4.20;;;;;;;;;;4966351;28;20023;-58
2022/12/23 13:30:57;;;;;;;5.15;2.70;;;;;;;;;;4964227;28;20755;-55
2022/12/23 13:33:34;;;;;;;4.82;2.67;;;;;;;;;;4974390;28;20062;-59
2022/12/23 13:36:04;;;;;;;4.03;2.17;;;;;;;;;;4968139;28;20334;-57
2022/12/23 13:38:56;;;;;;;4.68;2.35;;;;;;;;;;4965498;28;20057;-59
2022/12/23 13:41:29;;;;;;;6.18;2.42;;;;;;;;;;4970423;28;20058;-57
2022/12/23 13:43:54;;;;;;;4.43;2.38;;;;;;;;;;4974538;28;20539;-59
2022/12/23 13:46:24;;;;;;;4.78;2.50;;;;;;;;;;4973408;28;20026;-57
2022/12/23 13:48:58;;;;;;;5.55;2.25;;;;;;;;;;4969309;28;20490;-58
2022/12/23 13:51:36;;;;;;;6.28;3.15;;;;;;;;;;4967476;28;20035;-55
2022/12/23 13:54:10;;;;;;;5.85;3.22;;;;;;;;;;4964842;28;20629;-58
2022/12/23 13:57:06;;;;;;;6.80;3.38;;;;;;;;;;4969135;28;20097;-57
2022/12/23 13:59:39;;;;;;;5.18;2.58;;;;;;;;;;4969710;28;20154;-58
2022/12/23 14:02:25;;;;;;;5.40;2.60;;;;;;;;;;4973447;28;20043;-57
2022/12/23 14:05:00;;;;;;;6.80;3.33;;;;;;;;;;4969222;28;20027;-57
2022/12/23 14:07:26;;;;;;;5.68;2.60;;;;;;;;;;4981129;28;20031;-58
2022/12/23 14:09:54;;;;;;;4.03;2.40;;;;;;;;;;4976189;28;20089;-57
2022/12/23 14:12:19;;;;;;;5.25;2.70;;;;;;;;;;4968377;28;20022;-58
2022/12/23 14:14:59;;;;;;;7.90;3.45;;;;;;;;;;4968541;28;20041;-58
2022/12/23 14:17:31;;;;;;;8.43;4.60;;;;;;;;;;4972971;28;20039;-58
2022/12/23 14:20:14;;;;;;;5.05;3.15;;;;;;;;;;4967315;28;20843;-58
2022/12/23 14:22:51;;;;;;;11.68;6.68;;;;;;;;;;4974969;28;20057;-58
2022/12/23 14:25:16;;;;;;;8.55;3.95;;;;;;;;;;4973803;28;20034;-58
2022/12/23 14:27:58;;;;;;;6.95;3.70;;;;;;;;;;4971114;28;20034;-58
2022/12/23 14:30:45;;;;;;;6.80;4.00;;;;;;;;;;4975689;28;20043;-58
2022/12/23 14:33:13;;;;;;;9.40;4.70;;;;;;;;;;4958814;28;20041;-59
2022/12/23 14:35:39;;;;;;;6.78;3.05;;;;;;;;;;4967195;28;20034;-57
2022/12/23 14:38:13;;;;;;;7.55;3.17;;;;;;;;;;4971691;28;20025;-57
2022/12/23 14:40:38;;;;;;;16.00;4.97;;;;;;;;;;4968514;28;20162;-57
2022/12/23 14:43:30;;;;;;;12.82;4.82;;;;;;;;;;4967751;28;20033;-57
2022/12/23 14:46:03;;;;;;;5.60;2.70;;;;;;;;;;4955060;28;20420;-54
2022/12/23 14:48:32;;;;;;;6.00;2.67;;;;;;;;;;4968413;28;20031;-58
2022/12/23 14:51:17;;;;;;;4.85;2.35;;;;;;;;;;4976875;28;20130;-59
2022/12/23 14:53:52;;;;;;;4.70;2.70;;;;;;;;;;4973195;28;20049;-58
2022/12/23 14:56:17;;;;;;;5.18;2.50;;;;;;;;;;4967014;28;20026;-56
2022/12/23 14:58:46;;;;;;;5.13;2.20;;;;;;;;;;4974275;28;20042;-56
2022/12/23 15:01:15;;;;;;;3.95;2.10;;;;;;;;;;4971784;28;20066;-56
2022/12/23 15:03:48;;;;;;;8.60;3.67;;;;;;;;;;4973954;28;20022;-56
2022/12/23 15:06:18;;;;;;;4.97;2.40;;;;;;;;;;4971777;28;20063;-57
2022/12/23 15:08:44;;;;;;;5.60;2.63;;;;;;;;;;4968379;28;20504;-57
2022/12/23 15:11:29;;;;;;;6.28;3.00;;;;;;;;;;4967403;28;20037;-60
2022/12/23 15:13:55;;;;;;;6.78;3.20;;;;;;;;;;4974482;28;20544;-57
2022/12/23 15:16:32;;;;;;;4.00;2.30;;;;;;;;;;4949069;28;20042;-58
2022/12/23 15:19:01;;;;;;;4.25;1.77;;;;;;;;;;4955918;28;20416;-57
2022/12/23 15:21:33;;;;;;;3.22;2.10;;;;;;;;;;4963408;28;20508;-57